Mc Connell Air Force Base
KIAB : now visible

Airfield :











YOU CAN JOIN US ON...

 
LOGIN :

Register | Disclaimer

   EN    FR    IT 

 









Legend :    VFR   Marginal VFR   IFR   Intensive IFR   Very Intensive IFR
Visi :
Ceiling :
>= 8 km
>= 3000ft
5 to 8 km
1000 to 3000 ft
1500m to 5 km
500 to 1000 ft
800 to 1500m
200 to 500 ft
< 800m
< 200 ft
Symbols :   Thunderstorms  Fog  Heavy snow  Heavy precipitations  Wind > 20 kt






- Airport Elevation : 1371 ft
- IATA code : IAB


KIAB - Mc Connell Air Force Base

CURRENT METAR :
  • 100256Z AUTO 11007KT 10SM SCT080 27/20 A2995 RMK AO2 SLP133 T02720195 53012 $

EXPIRED METARs :
  • 100156Z AUTO 10006KT 10SM CLR 28/19 A2992 RMK AO2 SLP122 T02820188 $
  • 100056Z AUTO 10007KT 10SM CLR 30/18 A2992 RMK AO2 SLP121 T03000184 $

TAF AMD TAF KIAB
Valid from the 10 at 02:00 until the 11 at 08:00 UTC


100213Z 1002/1108 11006KT 9999 SCT035 QNH2990INS
BECMG 1005/1006 10009KT 9999 BKN035 QNH2995INS
BECMG 1014/1015 12012G18KT 9999 SCT040 BKN070 QNH2991INS
BECMG 1102/1103 13009KT 9999 BKN050 QNH2986INS TX35/1021Z TN24/1011Z LAST NO AMDS AFT 1002 NEXT 1010
KZKC FIR / North America



MET'MAP, your aeronautical weather chart ! - Copyright ORBIFLY December 2007 - Disclaimer

ORBIFLY MET'MAP TEAM :

Programming & Development : Alexandra Zaïnal
Concept & original design : Baudouin d'Aumeries
Assistance for programming : Marc-Olivier Méhu
Technical & hardware support : Manuel Goepfert

Contact : metmap@orbifly.com




SOURCES & CREDITS :

   NOAA       Earth
Advisory